sensor_id;sensor_type;location;lat;lon;timestamp;P1;durP1;ratioP1;P2;durP2;ratioP2
38302;SDS011;24103;42.454;27.400;2022-10-22T00:02:07;0.30;;;0.30;;
38302;SDS011;24103;42.454;27.400;2022-10-22T00:04:33;0.30;;;0.30;;
38302;SDS011;24103;42.454;27.400;2022-10-22T00:06:59;0.30;;;0.30;;
38302;SDS011;24103;42.454;27.400;2022-10-22T00:09:24;0.30;;;0.30;;
38302;SDS011;24103;42.454;27.400;2022-10-22T00:11:50;0.30;;;0.30;;
38302;SDS011;24103;42.454;27.400;2022-10-22T00:14:16;0.40;;;0.40;;
38302;SDS011;24103;42.454;27.400;2022-10-22T00:16:41;0.30;;;0.30;;
38302;SDS011;24103;42.454;27.400;2022-10-22T00:19:07;0.28;;;0.28;;
38302;SDS011;24103;42.454;27.400;2022-10-22T00:21:33;0.40;;;0.40;;
38302;SDS011;24103;42.454;27.400;2022-10-22T00:23:59;0.30;;;0.30;;
38302;SDS011;24103;42.454;27.400;2022-10-22T00:26:25;0.30;;;0.30;;
38302;SDS011;24103;42.454;27.400;2022-10-22T00:28:51;0.30;;;0.30;;
38302;SDS011;24103;42.454;27.400;2022-10-22T00:31:17;0.32;;;0.32;;
38302;SDS011;24103;42.454;27.400;2022-10-22T00:33:45;0.30;;;0.30;;
38302;SDS011;24103;42.454;27.400;2022-10-22T00:36:12;0.30;;;0.30;;
38302;SDS011;24103;42.454;27.400;2022-10-22T00:38:38;0.30;;;0.30;;
38302;SDS011;24103;42.454;27.400;2022-10-22T00:41:04;0.30;;;0.30;;
38302;SDS011;24103;42.454;27.400;2022-10-22T00:43:30;0.32;;;0.32;;
38302;SDS011;24103;42.454;27.400;2022-10-22T00:45:56;0.30;;;0.30;;
38302;SDS011;24103;42.454;27.400;2022-10-22T00:48:25;0.40;;;0.40;;
38302;SDS011;24103;42.454;27.400;2022-10-22T00:51:00;0.30;;;0.30;;
38302;SDS011;24103;42.454;27.400;2022-10-22T00:53:29;0.30;;;0.30;;
38302;SDS011;24103;42.454;27.400;2022-10-22T00:56:01;0.30;;;0.30;;
38302;SDS011;24103;42.454;27.400;2022-10-22T00:58:27;0.35;;;0.35;;
38302;SDS011;24103;42.454;27.400;2022-10-22T01:00:55;0.30;;;0.30;;
38302;SDS011;24103;42.454;27.400;2022-10-22T01:03:21;0.30;;;0.30;;
38302;SDS011;24103;42.454;27.400;2022-10-22T01:05:55;0.30;;;0.30;;
38302;SDS011;24103;42.454;27.400;2022-10-22T01:21:38;0.40;;;0.40;;
38302;SDS011;24103;42.454;27.400;2022-10-22T01:24:19;0.30;;;0.30;;
38302;SDS011;24103;42.454;27.400;2022-10-22T01:29:38;0.40;;;0.40;;
38302;SDS011;24103;42.454;27.400;2022-10-22T01:32:10;0.40;;;0.40;;
38302;SDS011;24103;42.454;27.400;2022-10-22T01:34:40;0.30;;;0.30;;
38302;SDS011;24103;42.454;27.400;2022-10-22T01:37:09;0.30;;;0.30;;
38302;SDS011;24103;42.454;27.400;2022-10-22T01:39:38;0.50;;;0.50;;
38302;SDS011;24103;42.454;27.400;2022-10-22T01:42:05;0.40;;;0.40;;
38302;SDS011;24103;42.454;27.400;2022-10-22T01:44:32;0.30;;;0.30;;
38302;SDS011;24103;42.454;27.400;2022-10-22T01:52:55;0.30;;;0.30;;
38302;SDS011;24103;42.454;27.400;2022-10-22T01:58:41;0.32;;;0.32;;
38302;SDS011;24103;42.454;27.400;2022-10-22T02:03:50;0.50;;;0.50;;
38302;SDS011;24103;42.454;27.400;2022-10-22T02:06:19;0.30;;;0.30;;
38302;SDS011;24103;42.454;27.400;2022-10-22T02:08:47;0.40;;;0.40;;
38302;SDS011;24103;42.454;27.400;2022-10-22T02:11:15;0.30;;;0.30;;
38302;SDS011;24103;42.454;27.400;2022-10-22T02:14:00;0.30;;;0.30;;
38302;SDS011;24103;42.454;27.400;2022-10-22T02:16:33;0.30;;;0.30;;
38302;SDS011;24103;42.454;27.400;2022-10-22T02:19:06;0.30;;;0.30;;
38302;SDS011;24103;42.454;27.400;2022-10-22T02:21:37;0.30;;;0.30;;
38302;SDS011;24103;42.454;27.400;2022-10-22T02:24:03;0.30;;;0.30;;
38302;SDS011;24103;42.454;27.400;2022-10-22T02:26:34;0.30;;;0.30;;
38302;SDS011;24103;42.454;27.400;2022-10-22T02:31:44;0.40;;;0.40;;
38302;SDS011;24103;42.454;27.400;2022-10-22T02:34:14;0.32;;;0.32;;
38302;SDS011;24103;42.454;27.400;2022-10-22T02:36:43;0.40;;;0.40;;
38302;SDS011;24103;42.454;27.400;2022-10-22T02:39:10;0.30;;;0.30;;
38302;SDS011;24103;42.454;27.400;2022-10-22T02:41:38;0.40;;;0.40;;
38302;SDS011;24103;42.454;27.400;2022-10-22T02:44:06;0.30;;;0.30;;
38302;SDS011;24103;42.454;27.400;2022-10-22T02:46:33;0.38;;;0.38;;
38302;SDS011;24103;42.454;27.400;2022-10-22T02:48:59;0.30;;;0.30;;
38302;SDS011;24103;42.454;27.400;2022-10-22T02:51:25;0.38;;;0.38;;
38302;SDS011;24103;42.454;27.400;2022-10-22T02:53:50;0.38;;;0.38;;
38302;SDS011;24103;42.454;27.400;2022-10-22T02:56:16;0.30;;;0.30;;
38302;SDS011;24103;42.454;27.400;2022-10-22T02:58:42;0.45;;;0.45;;
38302;SDS011;24103;42.454;27.400;2022-10-22T03:01:07;0.40;;;0.40;;
38302;SDS011;24103;42.454;27.400;2022-10-22T03:03:33;0.30;;;0.30;;
38302;SDS011;24103;42.454;27.400;2022-10-22T03:05:58;0.43;;;0.43;;
38302;SDS011;24103;42.454;27.400;2022-10-22T03:08:24;0.40;;;0.40;;
38302;SDS011;24103;42.454;27.400;2022-10-22T03:10:50;0.35;;;0.35;;
38302;SDS011;24103;42.454;27.400;2022-10-22T03:13:15;0.38;;;0.38;;
38302;SDS011;24103;42.454;27.400;2022-10-22T03:15:41;0.40;;;0.40;;
38302;SDS011;24103;42.454;27.400;2022-10-22T03:18:06;0.35;;;0.35;;
38302;SDS011;24103;42.454;27.400;2022-10-22T03:20:32;0.40;;;0.40;;
38302;SDS011;24103;42.454;27.400;2022-10-22T03:22:57;0.40;;;0.40;;
38302;SDS011;24103;42.454;27.400;2022-10-22T03:25:24;0.45;;;0.45;;
38302;SDS011;24103;42.454;27.400;2022-10-22T03:27:51;0.40;;;0.40;;
38302;SDS011;24103;42.454;27.400;2022-10-22T03:30:21;0.30;;;0.30;;
38302;SDS011;24103;42.454;27.400;2022-10-22T03:32:46;0.50;;;0.50;;
38302;SDS011;24103;42.454;27.400;2022-10-22T03:35:12;0.40;;;0.40;;
38302;SDS011;24103;42.454;27.400;2022-10-22T03:37:37;0.40;;;0.40;;
38302;SDS011;24103;42.454;27.400;2022-10-22T03:40:04;0.30;;;0.30;;
38302;SDS011;24103;42.454;27.400;2022-10-22T03:42:31;0.35;;;0.35;;
38302;SDS011;24103;42.454;27.400;2022-10-22T03:44:57;0.40;;;0.40;;
38302;SDS011;24103;42.454;27.400;2022-10-22T03:47:22;0.50;;;0.50;;
38302;SDS011;24103;42.454;27.400;2022-10-22T03:49:49;0.40;;;0.40;;
38302;SDS011;24103;42.454;27.400;2022-10-22T03:52:17;0.50;;;0.50;;
38302;SDS011;24103;42.454;27.400;2022-10-22T03:54:43;0.50;;;0.50;;
38302;SDS011;24103;42.454;27.400;2022-10-22T03:57:09;0.30;;;0.30;;
38302;SDS011;24103;42.454;27.400;2022-10-22T03:59:35;0.40;;;0.40;;
38302;SDS011;24103;42.454;27.400;2022-10-22T04:02:00;0.40;;;0.40;;
38302;SDS011;24103;42.454;27.400;2022-10-22T04:04:26;0.40;;;0.40;;
38302;SDS011;24103;42.454;27.400;2022-10-22T04:06:52;0.30;;;0.30;;
38302;SDS011;24103;42.454;27.400;2022-10-22T04:09:17;0.30;;;0.30;;
38302;SDS011;24103;42.454;27.400;2022-10-22T04:11:42;0.40;;;0.40;;
38302;SDS011;24103;42.454;27.400;2022-10-22T04:14:08;0.45;;;0.45;;
38302;SDS011;24103;42.454;27.400;2022-10-22T04:16:35;0.50;;;0.50;;
38302;SDS011;24103;42.454;27.400;2022-10-22T04:19:03;0.40;;;0.40;;
38302;SDS011;24103;42.454;27.400;2022-10-22T04:21:29;0.45;;;0.45;;
38302;SDS011;24103;42.454;27.400;2022-10-22T04:23:54;0.40;;;0.40;;
38302;SDS011;24103;42.454;27.400;2022-10-22T04:26:20;0.40;;;0.40;;
38302;SDS011;24103;42.454;27.400;2022-10-22T04:28:46;0.40;;;0.40;;
38302;SDS011;24103;42.454;27.400;2022-10-22T04:31:13;0.40;;;0.40;;
38302;SDS011;24103;42.454;27.400;2022-10-22T04:33:40;0.50;;;0.50;;
38302;SDS011;24103;42.454;27.400;2022-10-22T04:36:09;0.40;;;0.40;;
38302;SDS011;24103;42.454;27.400;2022-10-22T04:38:39;0.32;;;0.32;;
38302;SDS011;24103;42.454;27.400;2022-10-22T04:41:16;0.38;;;0.38;;
38302;SDS011;24103;42.454;27.400;2022-10-22T04:43:43;0.40;;;0.40;;
38302;SDS011;24103;42.454;27.400;2022-10-22T04:46:09;0.47;;;0.47;;
38302;SDS011;24103;42.454;27.400;2022-10-22T04:48:36;0.30;;;0.30;;
38302;SDS011;24103;42.454;27.400;2022-10-22T04:51:04;0.20;;;0.20;;
38302;SDS011;24103;42.454;27.400;2022-10-22T04:53:31;0.30;;;0.30;;
38302;SDS011;24103;42.454;27.400;2022-10-22T04:56:09;0.30;;;0.30;;
38302;SDS011;24103;42.454;27.400;2022-10-22T04:58:36;0.30;;;0.30;;
38302;SDS011;24103;42.454;27.400;2022-10-22T05:01:12;0.40;;;0.40;;
38302;SDS011;24103;42.454;27.400;2022-10-22T05:03:40;0.30;;;0.30;;
38302;SDS011;24103;42.454;27.400;2022-10-22T05:06:06;0.47;;;0.47;;
38302;SDS011;24103;42.454;27.400;2022-10-22T05:08:32;0.30;;;0.30;;
38302;SDS011;24103;42.454;27.400;2022-10-22T05:10:58;0.30;;;0.30;;
38302;SDS011;24103;42.454;27.400;2022-10-22T05:13:23;0.30;;;0.30;;
38302;SDS011;24103;42.454;27.400;2022-10-22T05:15:49;0.30;;;0.30;;
38302;SDS011;24103;42.454;27.400;2022-10-22T05:18:14;0.38;;;0.38;;
38302;SDS011;24103;42.454;27.400;2022-10-22T05:20:41;0.30;;;0.30;;
38302;SDS011;24103;42.454;27.400;2022-10-22T05:23:07;0.40;;;0.40;;
38302;SDS011;24103;42.454;27.400;2022-10-22T05:25:38;0.22;;;0.22;;
38302;SDS011;24103;42.454;27.400;2022-10-22T05:28:04;0.35;;;0.35;;
38302;SDS011;24103;42.454;27.400;2022-10-22T05:30:29;0.30;;;0.30;;
38302;SDS011;24103;42.454;27.400;2022-10-22T05:32:55;0.20;;;0.20;;
38302;SDS011;24103;42.454;27.400;2022-10-22T05:35:21;0.20;;;0.20;;
38302;SDS011;24103;42.454;27.400;2022-10-22T05:37:46;0.30;;;0.30;;
38302;SDS011;24103;42.454;27.400;2022-10-22T05:40:11;0.20;;;0.20;;
38302;SDS011;24103;42.454;27.400;2022-10-22T05:42:37;0.20;;;0.20;;
38302;SDS011;24103;42.454;27.400;2022-10-22T05:45:03;0.20;;;0.20;;
38302;SDS011;24103;42.454;27.400;2022-10-22T05:47:29;0.28;;;0.28;;
38302;SDS011;24103;42.454;27.400;2022-10-22T05:49:54;0.10;;;0.10;;
38302;SDS011;24103;42.454;27.400;2022-10-22T05:52:21;0.10;;;0.10;;
38302;SDS011;24103;42.454;27.400;2022-10-22T05:54:47;0.00;;;0.00;;
38302;SDS011;24103;42.454;27.400;2022-10-22T05:57:13;0.00;;;0.00;;
38302;SDS011;24103;42.454;27.400;2022-10-22T05:59:38;0.10;;;0.10;;
38302;SDS011;24103;42.454;27.400;2022-10-22T06:02:04;0.03;;;0.03;;
38302;SDS011;24103;42.454;27.400;2022-10-22T06:04:29;0.08;;;0.08;;
38302;SDS011;24103;42.454;27.400;2022-10-22T06:06:54;0.00;;;0.00;;
38302;SDS011;24103;42.454;27.400;2022-10-22T06:11:50;0.10;;;0.10;;
38302;SDS011;24103;42.454;27.400;2022-10-22T06:14:16;0.05;;;0.05;;
38302;SDS011;24103;42.454;27.400;2022-10-22T06:16:42;0.10;;;0.10;;
38302;SDS011;24103;42.454;27.400;2022-10-22T06:19:11;0.15;;;0.15;;
38302;SDS011;24103;42.454;27.400;2022-10-22T06:21:37;0.00;;;0.00;;
38302;SDS011;24103;42.454;27.400;2022-10-22T06:24:03;0.10;;;0.10;;
38302;SDS011;24103;42.454;27.400;2022-10-22T06:26:29;0.00;;;0.00;;
38302;SDS011;24103;42.454;27.400;2022-10-22T06:28:55;0.10;;;0.10;;
38302;SDS011;24103;42.454;27.400;2022-10-22T06:31:21;0.10;;;0.10;;
38302;SDS011;24103;42.454;27.400;2022-10-22T06:33:47;0.10;;;0.10;;
38302;SDS011;24103;42.454;27.400;2022-10-22T06:36:17;0.10;;;0.10;;
38302;SDS011;24103;42.454;27.400;2022-10-22T06:38:44;0.10;;;0.10;;
38302;SDS011;24103;42.454;27.400;2022-10-22T06:41:14;0.00;;;0.00;;
38302;SDS011;24103;42.454;27.400;2022-10-22T06:43:41;0.10;;;0.10;;
38302;SDS011;24103;42.454;27.400;2022-10-22T06:46:14;0.08;;;0.08;;
38302;SDS011;24103;42.454;27.400;2022-10-22T06:48:41;0.00;;;0.00;;
38302;SDS011;24103;42.454;27.400;2022-10-22T06:51:08;0.15;;;0.10;;
38302;SDS011;24103;42.454;27.400;2022-10-22T06:53:35;0.00;;;0.00;;
38302;SDS011;24103;42.454;27.400;2022-10-22T06:56:06;0.00;;;0.00;;
38302;SDS011;24103;42.454;27.400;2022-10-22T06:58:33;0.00;;;0.00;;
38302;SDS011;24103;42.454;27.400;2022-10-22T07:00:59;0.00;;;0.00;;
38302;SDS011;24103;42.454;27.400;2022-10-22T07:03:29;0.10;;;0.10;;
38302;SDS011;24103;42.454;27.400;2022-10-22T07:05:57;0.00;;;0.00;;
38302;SDS011;24103;42.454;27.400;2022-10-22T07:08:23;0.00;;;0.00;;
38302;SDS011;24103;42.454;27.400;2022-10-22T07:10:49;0.00;;;0.00;;
38302;SDS011;24103;42.454;27.400;2022-10-22T07:13:14;0.00;;;0.00;;
38302;SDS011;24103;42.454;27.400;2022-10-22T07:15:40;0.00;;;0.00;;
38302;SDS011;24103;42.454;27.400;2022-10-22T07:18:05;0.10;;;0.10;;
38302;SDS011;24103;42.454;27.400;2022-10-22T07:20:30;0.10;;;0.10;;
38302;SDS011;24103;42.454;27.400;2022-10-22T07:22:56;0.00;;;0.00;;
38302;SDS011;24103;42.454;27.400;2022-10-22T07:25:21;0.00;;;0.00;;
38302;SDS011;24103;42.454;27.400;2022-10-22T07:27:47;0.00;;;0.00;;
38302;SDS011;24103;42.454;27.400;2022-10-22T07:30:12;0.00;;;0.00;;
38302;SDS011;24103;42.454;27.400;2022-10-22T07:32:38;0.10;;;0.10;;
38302;SDS011;24103;42.454;27.400;2022-10-22T07:35:03;0.10;;;0.10;;
38302;SDS011;24103;42.454;27.400;2022-10-22T07:37:29;0.00;;;0.00;;
38302;SDS011;24103;42.454;27.400;2022-10-22T07:39:55;0.05;;;0.05;;
38302;SDS011;24103;42.454;27.400;2022-10-22T07:42:22;0.08;;;0.08;;
38302;SDS011;24103;42.454;27.400;2022-10-22T07:44:53;0.00;;;0.00;;
38302;SDS011;24103;42.454;27.400;2022-10-22T07:47:18;0.00;;;0.00;;
38302;SDS011;24103;42.454;27.400;2022-10-22T07:49:44;0.10;;;0.10;;
38302;SDS011;24103;42.454;27.400;2022-10-22T07:52:09;0.10;;;0.10;;
38302;SDS011;24103;42.454;27.400;2022-10-22T07:54:35;0.00;;;0.00;;
38302;SDS011;24103;42.454;27.400;2022-10-22T07:57:00;0.10;;;0.10;;
38302;SDS011;24103;42.454;27.400;2022-10-22T07:59:26;0.10;;;0.10;;
38302;SDS011;24103;42.454;27.400;2022-10-22T08:01:51;0.00;;;0.00;;
38302;SDS011;24103;42.454;27.400;2022-10-22T08:04:17;0.10;;;0.10;;
38302;SDS011;24103;42.454;27.400;2022-10-22T08:06:42;0.10;;;0.10;;
38302;SDS011;24103;42.454;27.400;2022-10-22T08:09:08;0.00;;;0.00;;
38302;SDS011;24103;42.454;27.400;2022-10-22T08:11:33;0.00;;;0.00;;
38302;SDS011;24103;42.454;27.400;2022-10-22T08:13:59;0.10;;;0.10;;
38302;SDS011;24103;42.454;27.400;2022-10-22T08:16:24;0.10;;;0.10;;
38302;SDS011;24103;42.454;27.400;2022-10-22T08:18:50;0.03;;;0.03;;
38302;SDS011;24103;42.454;27.400;2022-10-22T08:21:16;0.00;;;0.00;;
38302;SDS011;24103;42.454;27.400;2022-10-22T08:23:42;0.08;;;0.08;;
38302;SDS011;24103;42.454;27.400;2022-10-22T08:26:08;0.00;;;0.00;;
38302;SDS011;24103;42.454;27.400;2022-10-22T08:28:34;0.00;;;0.00;;
38302;SDS011;24103;42.454;27.400;2022-10-22T08:31:05;0.10;;;0.10;;
38302;SDS011;24103;42.454;27.400;2022-10-22T08:33:31;0.00;;;0.00;;
38302;SDS011;24103;42.454;27.400;2022-10-22T08:35:57;0.10;;;0.10;;
38302;SDS011;24103;42.454;27.400;2022-10-22T08:38:23;0.08;;;0.08;;
38302;SDS011;24103;42.454;27.400;2022-10-22T08:40:52;0.00;;;0.00;;
38302;SDS011;24103;42.454;27.400;2022-10-22T08:48:47;0.00;;;0.00;;
38302;SDS011;24103;42.454;27.400;2022-10-22T08:51:19;0.00;;;0.00;;
38302;SDS011;24103;42.454;27.400;2022-10-22T08:56:48;0.10;;;0.10;;
38302;SDS011;24103;42.454;27.400;2022-10-22T08:59:24;0.10;;;0.10;;
38302;SDS011;24103;42.454;27.400;2022-10-22T09:01:57;0.10;;;0.10;;
38302;SDS011;24103;42.454;27.400;2022-10-22T09:04:27;0.00;;;0.00;;
38302;SDS011;24103;42.454;27.400;2022-10-22T09:06:58;0.03;;;0.03;;
38302;SDS011;24103;42.454;27.400;2022-10-22T09:09:32;0.05;;;0.05;;
38302;SDS011;24103;42.454;27.400;2022-10-22T09:12:03;0.10;;;0.10;;
38302;SDS011;24103;42.454;27.400;2022-10-22T09:14:31;0.00;;;0.00;;
38302;SDS011;24103;42.454;27.400;2022-10-22T09:17:15;0.00;;;0.00;;
38302;SDS011;24103;42.454;27.400;2022-10-22T09:25:44;0.10;;;0.10;;
38302;SDS011;24103;42.454;27.400;2022-10-22T09:28:11;0.10;;;0.10;;
38302;SDS011;24103;42.454;27.400;2022-10-22T09:30:37;0.00;;;0.00;;
38302;SDS011;24103;42.454;27.400;2022-10-22T09:35:33;0.10;;;0.10;;
38302;SDS011;24103;42.454;27.400;2022-10-22T09:38:20;0.10;;;0.10;;
38302;SDS011;24103;42.454;27.400;2022-10-22T09:40:50;0.00;;;0.00;;
38302;SDS011;24103;42.454;27.400;2022-10-22T09:43:17;0.10;;;0.10;;
38302;SDS011;24103;42.454;27.400;2022-10-22T09:45:43;0.00;;;0.00;;
38302;SDS011;24103;42.454;27.400;2022-10-22T09:48:20;0.08;;;0.08;;
38302;SDS011;24103;42.454;27.400;2022-10-22T09:51:13;0.00;;;0.00;;
38302;SDS011;24103;42.454;27.400;2022-10-22T09:53:43;0.00;;;0.00;;
38302;SDS011;24103;42.454;27.400;2022-10-22T09:56:16;0.00;;;0.00;;
38302;SDS011;24103;42.454;27.400;2022-10-22T09:58:49;0.08;;;0.08;;
38302;SDS011;24103;42.454;27.400;2022-10-22T10:01:21;0.10;;;0.10;;
38302;SDS011;24103;42.454;27.400;2022-10-22T10:03:49;0.00;;;0.00;;
38302;SDS011;24103;42.454;27.400;2022-10-22T10:06:18;0.10;;;0.10;;
38302;SDS011;24103;42.454;27.400;2022-10-22T10:08:46;0.00;;;0.00;;
38302;SDS011;24103;42.454;27.400;2022-10-22T10:11:32;0.08;;;0.08;;
38302;SDS011;24103;42.454;27.400;2022-10-22T10:17:26;0.00;;;0.00;;
38302;SDS011;24103;42.454;27.400;2022-10-22T10:20:29;0.10;;;0.10;;
38302;SDS011;24103;42.454;27.400;2022-10-22T10:25:47;0.10;;;0.10;;
38302;SDS011;24103;42.454;27.400;2022-10-22T10:28:46;0.10;;;0.10;;
38302;SDS011;24103;42.454;27.400;2022-10-22T10:32:23;0.00;;;0.00;;
38302;SDS011;24103;42.454;27.400;2022-10-22T10:42:35;0.10;;;0.10;;
38302;SDS011;24103;42.454;27.400;2022-10-22T10:45:25;0.10;;;0.10;;
38302;SDS011;24103;42.454;27.400;2022-10-22T10:50:53;0.10;;;0.10;;
38302;SDS011;24103;42.454;27.400;2022-10-22T10:56:57;0.10;;;0.10;;
38302;SDS011;24103;42.454;27.400;2022-10-22T10:59:35;0.10;;;0.10;;
38302;SDS011;24103;42.454;27.400;2022-10-22T11:07:23;0.10;;;0.10;;
38302;SDS011;24103;42.454;27.400;2022-10-22T11:09:55;0.10;;;0.10;;
38302;SDS011;24103;42.454;27.400;2022-10-22T11:12:30;0.00;;;0.00;;
38302;SDS011;24103;42.454;27.400;2022-10-22T11:15:02;0.00;;;0.00;;
38302;SDS011;24103;42.454;27.400;2022-10-22T11:17:44;0.00;;;0.00;;
38302;SDS011;24103;42.454;27.400;2022-10-22T11:20:48;0.10;;;0.10;;
38302;SDS011;24103;42.454;27.400;2022-10-22T11:23:17;0.00;;;0.00;;
38302;SDS011;24103;42.454;27.400;2022-10-22T11:25:50;0.10;;;0.10;;
38302;SDS011;24103;42.454;27.400;2022-10-22T11:28:22;0.00;;;0.00;;
38302;SDS011;24103;42.454;27.400;2022-10-22T11:30:57;0.00;;;0.00;;
38302;SDS011;24103;42.454;27.400;2022-10-22T11:33:27;0.10;;;0.10;;
38302;SDS011;24103;42.454;27.400;2022-10-22T11:36:04;0.00;;;0.00;;
38302;SDS011;24103;42.454;27.400;2022-10-22T11:38:32;0.00;;;0.00;;
38302;SDS011;24103;42.454;27.400;2022-10-22T11:41:01;0.10;;;0.10;;
38302;SDS011;24103;42.454;27.400;2022-10-22T11:43:31;0.03;;;0.03;;
38302;SDS011;24103;42.454;27.400;2022-10-22T11:49:04;0.10;;;0.10;;
38302;SDS011;24103;42.454;27.400;2022-10-22T11:51:42;0.00;;;0.00;;
38302;SDS011;24103;42.454;27.400;2022-10-22T12:04:55;0.10;;;0.10;;
38302;SDS011;24103;42.454;27.400;2022-10-22T12:07:50;0.05;;;0.05;;
38302;SDS011;24103;42.454;27.400;2022-10-22T12:10:21;0.00;;;0.00;;
38302;SDS011;24103;42.454;27.400;2022-10-22T12:13:04;0.00;;;0.00;;
38302;SDS011;24103;42.454;27.400;2022-10-22T12:15:45;0.03;;;0.03;;
38302;SDS011;24103;42.454;27.400;2022-10-22T12:18:12;0.10;;;0.10;;
38302;SDS011;24103;42.454;27.400;2022-10-22T12:20:38;0.05;;;0.05;;
38302;SDS011;24103;42.454;27.400;2022-10-22T12:23:05;0.00;;;0.00;;
38302;SDS011;24103;42.454;27.400;2022-10-22T12:25:33;0.10;;;0.10;;
38302;SDS011;24103;42.454;27.400;2022-10-22T12:28:00;0.10;;;0.10;;
38302;SDS011;24103;42.454;27.400;2022-10-22T12:30:32;0.10;;;0.10;;
38302;SDS011;24103;42.454;27.400;2022-10-22T12:35:27;0.00;;;0.00;;
38302;SDS011;24103;42.454;27.400;2022-10-22T12:37:54;0.10;;;0.10;;
38302;SDS011;24103;42.454;27.400;2022-10-22T12:40:22;0.00;;;0.00;;
38302;SDS011;24103;42.454;27.400;2022-10-22T12:42:51;0.00;;;0.00;;
38302;SDS011;24103;42.454;27.400;2022-10-22T12:45:18;0.10;;;0.10;;
38302;SDS011;24103;42.454;27.400;2022-10-22T12:48:04;0.00;;;0.00;;
38302;SDS011;24103;42.454;27.400;2022-10-22T12:50:41;0.00;;;0.00;;
38302;SDS011;24103;42.454;27.400;2022-10-22T12:53:14;0.00;;;0.00;;
38302;SDS011;24103;42.454;27.400;2022-10-22T12:55:54;0.00;;;0.00;;
38302;SDS011;24103;42.454;27.400;2022-10-22T12:58:28;0.05;;;0.05;;
38302;SDS011;24103;42.454;27.400;2022-10-22T13:01:16;0.00;;;0.00;;
38302;SDS011;24103;42.454;27.400;2022-10-22T13:03:46;0.00;;;0.00;;
38302;SDS011;24103;42.454;27.400;2022-10-22T13:08:43;0.10;;;0.10;;
38302;SDS011;24103;42.454;27.400;2022-10-22T13:11:32;0.00;;;0.00;;
38302;SDS011;24103;42.454;27.400;2022-10-22T13:19:37;0.10;;;0.10;;
38302;SDS011;24103;42.454;27.400;2022-10-22T13:22:24;0.00;;;0.00;;
38302;SDS011;24103;42.454;27.400;2022-10-22T13:24:53;0.00;;;0.00;;
38302;SDS011;24103;42.454;27.400;2022-10-22T13:27:20;0.00;;;0.00;;
38302;SDS011;24103;42.454;27.400;2022-10-22T13:29:47;0.00;;;0.00;;
38302;SDS011;24103;42.454;27.400;2022-10-22T13:32:29;0.00;;;0.00;;
38302;SDS011;24103;42.454;27.400;2022-10-22T13:34:57;0.00;;;0.00;;
38302;SDS011;24103;42.454;27.400;2022-10-22T13:37:27;0.00;;;0.00;;
38302;SDS011;24103;42.454;27.400;2022-10-22T13:39:55;0.00;;;0.00;;
38302;SDS011;24103;42.454;27.400;2022-10-22T13:42:21;0.00;;;0.00;;
38302;SDS011;24103;42.454;27.400;2022-10-22T13:44:46;0.08;;;0.08;;
38302;SDS011;24103;42.454;27.400;2022-10-22T13:47:23;0.00;;;0.00;;
38302;SDS011;24103;42.454;27.400;2022-10-22T13:49:51;0.00;;;0.00;;
38302;SDS011;24103;42.454;27.400;2022-10-22T13:52:42;0.00;;;0.00;;
38302;SDS011;24103;42.454;27.400;2022-10-22T13:55:24;0.00;;;0.00;;
38302;SDS011;24103;42.454;27.400;2022-10-22T13:57:54;0.00;;;0.00;;
38302;SDS011;24103;42.454;27.400;2022-10-22T14:00:22;0.08;;;0.08;;
38302;SDS011;24103;42.454;27.400;2022-10-22T14:02:49;0.10;;;0.10;;
38302;SDS011;24103;42.454;27.400;2022-10-22T14:05:18;0.00;;;0.00;;
38302;SDS011;24103;42.454;27.400;2022-10-22T14:07:44;0.10;;;0.10;;
38302;SDS011;24103;42.454;27.400;2022-10-22T14:10:20;0.10;;;0.10;;
38302;SDS011;24103;42.454;27.400;2022-10-22T14:12:47;0.10;;;0.10;;
38302;SDS011;24103;42.454;27.400;2022-10-22T14:15:15;0.10;;;0.10;;
38302;SDS011;24103;42.454;27.400;2022-10-22T14:17:42;0.10;;;0.10;;
38302;SDS011;24103;42.454;27.400;2022-10-22T14:20:20;0.10;;;0.10;;
38302;SDS011;24103;42.454;27.400;2022-10-22T14:22:49;0.00;;;0.00;;
38302;SDS011;24103;42.454;27.400;2022-10-22T14:25:16;0.00;;;0.00;;
38302;SDS011;24103;42.454;27.400;2022-10-22T14:27:44;0.10;;;0.10;;
38302;SDS011;24103;42.454;27.400;2022-10-22T14:30:20;0.10;;;0.10;;
38302;SDS011;24103;42.454;27.400;2022-10-22T14:32:48;0.10;;;0.10;;
38302;SDS011;24103;42.454;27.400;2022-10-22T14:35:15;0.15;;;0.15;;
38302;SDS011;24103;42.454;27.400;2022-10-22T14:37:42;0.10;;;0.10;;
38302;SDS011;24103;42.454;27.400;2022-10-22T14:40:08;0.10;;;0.10;;
38302;SDS011;24103;42.454;27.400;2022-10-22T14:42:39;0.10;;;0.10;;
38302;SDS011;24103;42.454;27.400;2022-10-22T14:45:08;0.10;;;0.10;;
38302;SDS011;24103;42.454;27.400;2022-10-22T14:47:43;0.10;;;0.10;;
38302;SDS011;24103;42.454;27.400;2022-10-22T14:50:09;0.13;;;0.13;;
38302;SDS011;24103;42.454;27.400;2022-10-22T14:52:35;0.10;;;0.10;;
38302;SDS011;24103;42.454;27.400;2022-10-22T14:55:01;0.10;;;0.10;;
38302;SDS011;24103;42.454;27.400;2022-10-22T14:57:26;0.10;;;0.10;;
38302;SDS011;24103;42.454;27.400;2022-10-22T14:59:52;0.10;;;0.10;;
38302;SDS011;24103;42.454;27.400;2022-10-22T15:02:20;0.03;;;0.03;;
38302;SDS011;24103;42.454;27.400;2022-10-22T15:04:47;0.00;;;0.00;;
38302;SDS011;24103;42.454;27.400;2022-10-22T15:07:13;0.10;;;0.10;;
38302;SDS011;24103;42.454;27.400;2022-10-22T15:09:39;0.00;;;0.00;;
38302;SDS011;24103;42.454;27.400;2022-10-22T15:12:05;0.00;;;0.00;;
38302;SDS011;24103;42.454;27.400;2022-10-22T15:14:30;0.10;;;0.10;;
38302;SDS011;24103;42.454;27.400;2022-10-22T15:16:56;0.10;;;0.10;;
38302;SDS011;24103;42.454;27.400;2022-10-22T15:19:21;0.00;;;0.00;;
38302;SDS011;24103;42.454;27.400;2022-10-22T15:21:47;0.10;;;0.10;;
38302;SDS011;24103;42.454;27.400;2022-10-22T15:24:12;0.10;;;0.10;;
38302;SDS011;24103;42.454;27.400;2022-10-22T15:26:38;0.10;;;0.10;;
38302;SDS011;24103;42.454;27.400;2022-10-22T15:29:03;0.10;;;0.10;;
38302;SDS011;24103;42.454;27.400;2022-10-22T15:34:22;0.10;;;0.10;;
38302;SDS011;24103;42.454;27.400;2022-10-22T15:36:50;0.10;;;0.10;;
38302;SDS011;24103;42.454;27.400;2022-10-22T15:39:17;0.10;;;0.10;;
38302;SDS011;24103;42.454;27.400;2022-10-22T15:41:43;0.03;;;0.03;;
38302;SDS011;24103;42.454;27.400;2022-10-22T15:44:13;0.00;;;0.00;;
38302;SDS011;24103;42.454;27.400;2022-10-22T15:46:43;0.00;;;0.00;;
38302;SDS011;24103;42.454;27.400;2022-10-22T15:49:09;0.10;;;0.10;;
38302;SDS011;24103;42.454;27.400;2022-10-22T15:51:35;0.08;;;0.08;;
38302;SDS011;24103;42.454;27.400;2022-10-22T15:54:00;0.00;;;0.00;;
38302;SDS011;24103;42.454;27.400;2022-10-22T15:56:27;0.10;;;0.10;;
38302;SDS011;24103;42.454;27.400;2022-10-22T15:58:54;0.10;;;0.10;;
38302;SDS011;24103;42.454;27.400;2022-10-22T16:01:22;0.10;;;0.10;;
38302;SDS011;24103;42.454;27.400;2022-10-22T16:03:50;0.10;;;0.10;;
38302;SDS011;24103;42.454;27.400;2022-10-22T16:06:23;0.10;;;0.10;;
38302;SDS011;24103;42.454;27.400;2022-10-22T16:09:00;0.10;;;0.10;;
38302;SDS011;24103;42.454;27.400;2022-10-22T16:11:27;0.10;;;0.10;;
38302;SDS011;24103;42.454;27.400;2022-10-22T16:13:54;0.10;;;0.10;;
38302;SDS011;24103;42.454;27.400;2022-10-22T16:16:21;0.00;;;0.00;;
38302;SDS011;24103;42.454;27.400;2022-10-22T16:18:48;0.10;;;0.10;;
38302;SDS011;24103;42.454;27.400;2022-10-22T16:21:14;0.10;;;0.10;;
38302;SDS011;24103;42.454;27.400;2022-10-22T16:23:41;0.10;;;0.10;;
38302;SDS011;24103;42.454;27.400;2022-10-22T16:26:06;0.10;;;0.10;;
38302;SDS011;24103;42.454;27.400;2022-10-22T16:28:32;0.10;;;0.10;;